sensor_id;sensor_type;location;lat;lon;timestamp;temperature;humidity
15556;DHT22;7879;48.660;9.116;2023-04-25T00:01:40;7.20;99.90
15556;DHT22;7879;48.660;9.116;2023-04-25T00:04:07;7.20;99.90
15556;DHT22;7879;48.660;9.116;2023-04-25T00:06:35;7.20;99.90
15556;DHT22;7879;48.660;9.116;2023-04-25T00:09:04;7.20;99.90
15556;DHT22;7879;48.660;9.116;2023-04-25T00:11:34;7.20;99.90
15556;DHT22;7879;48.660;9.116;2023-04-25T00:14:01;7.20;99.90
15556;DHT22;7879;48.660;9.116;2023-04-25T00:16:29;7.20;99.90
15556;DHT22;7879;48.660;9.116;2023-04-25T00:19:00;7.10;99.90
15556;DHT22;7879;48.660;9.116;2023-04-25T00:21:29;7.10;99.90
15556;DHT22;7879;48.660;9.116;2023-04-25T00:23:58;7.10;99.90
15556;DHT22;7879;48.660;9.116;2023-04-25T00:26:24;7.00;99.90
15556;DHT22;7879;48.660;9.116;2023-04-25T00:28:51;7.00;99.90
15556;DHT22;7879;48.660;9.116;2023-04-25T00:31:18;7.00;99.90
15556;DHT22;7879;48.660;9.116;2023-04-25T00:33:45;7.00;99.90
15556;DHT22;7879;48.660;9.116;2023-04-25T00:36:12;6.90;99.90
15556;DHT22;7879;48.660;9.116;2023-04-25T00:38:39;6.90;99.90
15556;DHT22;7879;48.660;9.116;2023-04-25T00:41:07;6.90;99.90
15556;DHT22;7879;48.660;9.116;2023-04-25T00:43:36;6.90;99.90
15556;DHT22;7879;48.660;9.116;2023-04-25T00:46:03;6.90;99.90
15556;DHT22;7879;48.660;9.116;2023-04-25T00:48:30;6.90;99.90
15556;DHT22;7879;48.660;9.116;2023-04-25T00:50:58;7.00;99.90
15556;DHT22;7879;48.660;9.116;2023-04-25T00:53:26;6.90;99.90
15556;DHT22;7879;48.660;9.116;2023-04-25T00:55:55;6.90;99.90
15556;DHT22;7879;48.660;9.116;2023-04-25T00:58:22;6.80;99.90
15556;DHT22;7879;48.660;9.116;2023-04-25T01:00:51;6.90;99.90
15556;DHT22;7879;48.660;9.116;2023-04-25T01:03:19;6.80;99.90
15556;DHT22;7879;48.660;9.116;2023-04-25T01:05:50;6.80;99.90
15556;DHT22;7879;48.660;9.116;2023-04-25T01:08:17;6.80;99.90
15556;DHT22;7879;48.660;9.116;2023-04-25T01:10:44;6.80;99.90
15556;DHT22;7879;48.660;9.116;2023-04-25T01:13:11;6.80;99.90
15556;DHT22;7879;48.660;9.116;2023-04-25T01:15:37;6.90;99.90
15556;DHT22;7879;48.660;9.116;2023-04-25T01:18:05;6.90;99.90
15556;DHT22;7879;48.660;9.116;2023-04-25T01:20:33;6.90;99.90
15556;DHT22;7879;48.660;9.116;2023-04-25T01:23:01;7.00;99.90
15556;DHT22;7879;48.660;9.116;2023-04-25T01:25:32;6.80;99.90
15556;DHT22;7879;48.660;9.116;2023-04-25T01:27:59;6.80;99.90
15556;DHT22;7879;48.660;9.116;2023-04-25T01:30:27;6.80;99.90
15556;DHT22;7879;48.660;9.116;2023-04-25T01:32:55;6.80;99.90
15556;DHT22;7879;48.660;9.116;2023-04-25T01:35:22;6.80;99.90
15556;DHT22;7879;48.660;9.116;2023-04-25T01:37:51;6.80;99.90
15556;DHT22;7879;48.660;9.116;2023-04-25T01:40:18;6.90;99.90
15556;DHT22;7879;48.660;9.116;2023-04-25T01:42:47;6.70;99.90
15556;DHT22;7879;48.660;9.116;2023-04-25T01:45:14;6.70;99.90
15556;DHT22;7879;48.660;9.116;2023-04-25T01:47:41;6.70;99.90
15556;DHT22;7879;48.660;9.116;2023-04-25T01:50:10;6.80;99.90
15556;DHT22;7879;48.660;9.116;2023-04-25T01:52:37;6.80;99.90
15556;DHT22;7879;48.660;9.116;2023-04-25T01:55:06;6.80;99.90
15556;DHT22;7879;48.660;9.116;2023-04-25T01:57:32;6.80;99.90
15556;DHT22;7879;48.660;9.116;2023-04-25T02:00:02;6.70;99.90
15556;DHT22;7879;48.660;9.116;2023-04-25T02:02:29;6.70;99.90
15556;DHT22;7879;48.660;9.116;2023-04-25T02:04:56;6.80;99.90
15556;DHT22;7879;48.660;9.116;2023-04-25T02:07:23;6.70;99.90
15556;DHT22;7879;48.660;9.116;2023-04-25T02:09:50;6.70;99.90
15556;DHT22;7879;48.660;9.116;2023-04-25T02:12:17;6.70;99.90
15556;DHT22;7879;48.660;9.116;2023-04-25T02:14:44;6.70;99.90
15556;DHT22;7879;48.660;9.116;2023-04-25T02:17:11;6.70;99.90
15556;DHT22;7879;48.660;9.116;2023-04-25T02:19:39;6.70;99.90
15556;DHT22;7879;48.660;9.116;2023-04-25T02:22:06;6.70;99.90
15556;DHT22;7879;48.660;9.116;2023-04-25T02:24:32;6.70;99.90
15556;DHT22;7879;48.660;9.116;2023-04-25T02:27:00;6.80;99.90
15556;DHT22;7879;48.660;9.116;2023-04-25T02:29:27;6.70;99.90
15556;DHT22;7879;48.660;9.116;2023-04-25T02:31:54;6.70;99.90
15556;DHT22;7879;48.660;9.116;2023-04-25T02:34:21;6.70;99.90
15556;DHT22;7879;48.660;9.116;2023-04-25T02:36:49;6.70;99.90
15556;DHT22;7879;48.660;9.116;2023-04-25T02:39:17;6.60;99.90
15556;DHT22;7879;48.660;9.116;2023-04-25T02:41:44;6.70;99.90
15556;DHT22;7879;48.660;9.116;2023-04-25T02:44:11;6.50;99.90
15556;DHT22;7879;48.660;9.116;2023-04-25T02:46:38;6.60;99.90
15556;DHT22;7879;48.660;9.116;2023-04-25T02:49:06;6.50;99.90
15556;DHT22;7879;48.660;9.116;2023-04-25T02:51:32;6.50;99.90
15556;DHT22;7879;48.660;9.116;2023-04-25T02:53:59;6.50;99.90
15556;DHT22;7879;48.660;9.116;2023-04-25T02:56:26;6.40;99.90
15556;DHT22;7879;48.660;9.116;2023-04-25T02:58:53;6.40;99.90
15556;DHT22;7879;48.660;9.116;2023-04-25T03:01:20;6.40;99.90
15556;DHT22;7879;48.660;9.116;2023-04-25T03:03:47;6.30;99.90
15556;DHT22;7879;48.660;9.116;2023-04-25T03:06:15;6.20;99.90
15556;DHT22;7879;48.660;9.116;2023-04-25T03:08:42;6.30;99.90
15556;DHT22;7879;48.660;9.116;2023-04-25T03:11:09;6.30;99.90
15556;DHT22;7879;48.660;9.116;2023-04-25T03:13:39;6.30;99.90
15556;DHT22;7879;48.660;9.116;2023-04-25T03:16:06;6.30;99.90
15556;DHT22;7879;48.660;9.116;2023-04-25T03:18:33;6.30;99.90
15556;DHT22;7879;48.660;9.116;2023-04-25T03:20:59;6.30;99.90
15556;DHT22;7879;48.660;9.116;2023-04-25T03:23:26;6.20;99.90
15556;DHT22;7879;48.660;9.116;2023-04-25T03:25:53;6.30;99.90
15556;DHT22;7879;48.660;9.116;2023-04-25T03:28:20;6.30;99.90
15556;DHT22;7879;48.660;9.116;2023-04-25T03:30:46;6.30;99.90
15556;DHT22;7879;48.660;9.116;2023-04-25T03:33:13;6.40;99.90
15556;DHT22;7879;48.660;9.116;2023-04-25T03:35:40;6.40;99.90
15556;DHT22;7879;48.660;9.116;2023-04-25T03:38:07;6.40;99.90
15556;DHT22;7879;48.660;9.116;2023-04-25T03:40:34;6.40;99.90
15556;DHT22;7879;48.660;9.116;2023-04-25T03:43:00;6.30;99.90
15556;DHT22;7879;48.660;9.116;2023-04-25T03:45:27;6.30;99.90
15556;DHT22;7879;48.660;9.116;2023-04-25T03:47:54;6.30;99.90
15556;DHT22;7879;48.660;9.116;2023-04-25T03:50:24;6.20;99.90
15556;DHT22;7879;48.660;9.116;2023-04-25T03:52:51;6.30;99.90
15556;DHT22;7879;48.660;9.116;2023-04-25T03:55:18;6.30;99.90
15556;DHT22;7879;48.660;9.116;2023-04-25T03:57:45;6.20;99.90
15556;DHT22;7879;48.660;9.116;2023-04-25T04:00:12;6.20;99.90
15556;DHT22;7879;48.660;9.116;2023-04-25T04:02:39;6.20;99.90
15556;DHT22;7879;48.660;9.116;2023-04-25T04:05:10;6.10;99.90
15556;DHT22;7879;48.660;9.116;2023-04-25T04:07:37;6.10;99.90
15556;DHT22;7879;48.660;9.116;2023-04-25T04:10:07;6.10;99.90
15556;DHT22;7879;48.660;9.116;2023-04-25T04:12:34;6.10;99.90
15556;DHT22;7879;48.660;9.116;2023-04-25T04:15:02;6.10;99.90
15556;DHT22;7879;48.660;9.116;2023-04-25T04:17:30;6.00;99.90
15556;DHT22;7879;48.660;9.116;2023-04-25T04:19:57;6.10;99.90
15556;DHT22;7879;48.660;9.116;2023-04-25T04:22:24;6.10;99.90
15556;DHT22;7879;48.660;9.116;2023-04-25T04:24:51;6.10;99.90
15556;DHT22;7879;48.660;9.116;2023-04-25T04:27:18;6.10;99.90
15556;DHT22;7879;48.660;9.116;2023-04-25T04:29:49;6.00;99.90
15556;DHT22;7879;48.660;9.116;2023-04-25T04:32:18;6.00;99.90
15556;DHT22;7879;48.660;9.116;2023-04-25T04:34:45;6.00;99.90
15556;DHT22;7879;48.660;9.116;2023-04-25T04:37:13;6.10;99.90
15556;DHT22;7879;48.660;9.116;2023-04-25T04:39:41;6.00;99.90
15556;DHT22;7879;48.660;9.116;2023-04-25T04:42:08;6.00;99.90
15556;DHT22;7879;48.660;9.116;2023-04-25T04:44:40;5.90;99.90
15556;DHT22;7879;48.660;9.116;2023-04-25T04:47:07;5.90;99.90
15556;DHT22;7879;48.660;9.116;2023-04-25T04:49:34;5.80;99.90
15556;DHT22;7879;48.660;9.116;2023-04-25T04:52:01;5.80;99.90
15556;DHT22;7879;48.660;9.116;2023-04-25T04:54:28;5.80;99.90
15556;DHT22;7879;48.660;9.116;2023-04-25T04:56:55;5.80;99.90
15556;DHT22;7879;48.660;9.116;2023-04-25T04:59:21;5.90;99.90
15556;DHT22;7879;48.660;9.116;2023-04-25T05:01:49;5.90;99.90
15556;DHT22;7879;48.660;9.116;2023-04-25T05:04:15;5.90;99.90
15556;DHT22;7879;48.660;9.116;2023-04-25T05:06:42;6.00;99.90
15556;DHT22;7879;48.660;9.116;2023-04-25T05:09:14;6.00;99.90
15556;DHT22;7879;48.660;9.116;2023-04-25T05:11:41;6.00;99.90
15556;DHT22;7879;48.660;9.116;2023-04-25T05:14:08;6.00;99.90
15556;DHT22;7879;48.660;9.116;2023-04-25T05:16:35;6.10;99.90
15556;DHT22;7879;48.660;9.116;2023-04-25T05:19:02;6.10;99.90
15556;DHT22;7879;48.660;9.116;2023-04-25T05:21:29;6.20;99.90
15556;DHT22;7879;48.660;9.116;2023-04-25T05:23:56;6.40;99.90
15556;DHT22;7879;48.660;9.116;2023-04-25T05:26:23;6.20;99.90
15556;DHT22;7879;48.660;9.116;2023-04-25T05:28:50;6.20;99.90
15556;DHT22;7879;48.660;9.116;2023-04-25T05:31:17;6.30;99.90
15556;DHT22;7879;48.660;9.116;2023-04-25T05:33:44;6.30;99.90
15556;DHT22;7879;48.660;9.116;2023-04-25T05:36:11;6.30;99.90
15556;DHT22;7879;48.660;9.116;2023-04-25T05:38:38;6.40;99.90
15556;DHT22;7879;48.660;9.116;2023-04-25T05:41:05;6.40;99.90
15556;DHT22;7879;48.660;9.116;2023-04-25T05:43:31;6.40;99.90
15556;DHT22;7879;48.660;9.116;2023-04-25T05:45:59;6.40;99.90
15556;DHT22;7879;48.660;9.116;2023-04-25T05:48:25;6.40;99.90
15556;DHT22;7879;48.660;9.116;2023-04-25T05:50:52;6.40;99.90
15556;DHT22;7879;48.660;9.116;2023-04-25T05:53:20;6.40;99.90
15556;DHT22;7879;48.660;9.116;2023-04-25T05:55:47;6.40;99.90
15556;DHT22;7879;48.660;9.116;2023-04-25T05:58:14;6.50;99.90
15556;DHT22;7879;48.660;9.116;2023-04-25T06:00:40;6.50;99.90
15556;DHT22;7879;48.660;9.116;2023-04-25T06:03:08;6.50;99.90
15556;DHT22;7879;48.660;9.116;2023-04-25T06:05:36;6.60;99.90
15556;DHT22;7879;48.660;9.116;2023-04-25T06:08:03;6.60;99.90
15556;DHT22;7879;48.660;9.116;2023-04-25T06:10:30;6.60;99.90
15556;DHT22;7879;48.660;9.116;2023-04-25T06:12:57;6.70;99.90
15556;DHT22;7879;48.660;9.116;2023-04-25T06:15:24;6.80;99.90
15556;DHT22;7879;48.660;9.116;2023-04-25T06:17:54;6.80;99.90
15556;DHT22;7879;48.660;9.116;2023-04-25T06:20:22;6.90;99.90
15556;DHT22;7879;48.660;9.116;2023-04-25T06:22:51;6.90;99.90
15556;DHT22;7879;48.660;9.116;2023-04-25T06:25:20;6.90;99.90
15556;DHT22;7879;48.660;9.116;2023-04-25T06:27:47;7.00;99.90
15556;DHT22;7879;48.660;9.116;2023-04-25T06:30:14;7.00;99.90
15556;DHT22;7879;48.660;9.116;2023-04-25T06:32:43;7.00;99.90
15556;DHT22;7879;48.660;9.116;2023-04-25T06:35:09;7.00;99.90
15556;DHT22;7879;48.660;9.116;2023-04-25T06:37:37;7.00;99.90
15556;DHT22;7879;48.660;9.116;2023-04-25T06:40:05;7.00;99.90
15556;DHT22;7879;48.660;9.116;2023-04-25T06:42:32;7.10;99.90
15556;DHT22;7879;48.660;9.116;2023-04-25T06:44:59;7.00;99.90
15556;DHT22;7879;48.660;9.116;2023-04-25T06:47:26;7.00;99.90
15556;DHT22;7879;48.660;9.116;2023-04-25T06:49:52;7.00;99.90
15556;DHT22;7879;48.660;9.116;2023-04-25T06:52:19;7.00;99.90
15556;DHT22;7879;48.660;9.116;2023-04-25T06:54:46;7.00;99.90
15556;DHT22;7879;48.660;9.116;2023-04-25T06:57:13;7.00;99.90
15556;DHT22;7879;48.660;9.116;2023-04-25T06:59:40;7.00;99.90
15556;DHT22;7879;48.660;9.116;2023-04-25T07:02:06;7.00;99.90
15556;DHT22;7879;48.660;9.116;2023-04-25T07:04:33;7.00;99.90
15556;DHT22;7879;48.660;9.116;2023-04-25T07:07:01;7.00;99.90
15556;DHT22;7879;48.660;9.116;2023-04-25T07:09:30;7.00;99.90
15556;DHT22;7879;48.660;9.116;2023-04-25T07:12:00;7.10;99.90
15556;DHT22;7879;48.660;9.116;2023-04-25T07:14:28;7.00;99.90
15556;DHT22;7879;48.660;9.116;2023-04-25T07:16:55;7.00;99.90
15556;DHT22;7879;48.660;9.116;2023-04-25T07:19:24;7.10;99.90
15556;DHT22;7879;48.660;9.116;2023-04-25T07:21:53;7.00;99.90
15556;DHT22;7879;48.660;9.116;2023-04-25T07:24:20;7.00;99.90
15556;DHT22;7879;48.660;9.116;2023-04-25T07:26:47;7.00;99.90
15556;DHT22;7879;48.660;9.116;2023-04-25T07:29:14;7.00;99.90
15556;DHT22;7879;48.660;9.116;2023-04-25T07:31:41;7.00;99.90
15556;DHT22;7879;48.660;9.116;2023-04-25T07:34:08;6.90;99.90
15556;DHT22;7879;48.660;9.116;2023-04-25T07:36:34;7.00;99.90
15556;DHT22;7879;48.660;9.116;2023-04-25T07:39:01;7.00;99.90
15556;DHT22;7879;48.660;9.116;2023-04-25T07:41:28;7.00;99.90
15556;DHT22;7879;48.660;9.116;2023-04-25T07:43:55;7.00;99.90
15556;DHT22;7879;48.660;9.116;2023-04-25T07:46:22;6.90;99.90
15556;DHT22;7879;48.660;9.116;2023-04-25T07:48:49;7.00;99.90
15556;DHT22;7879;48.660;9.116;2023-04-25T07:51:16;7.00;99.90
15556;DHT22;7879;48.660;9.116;2023-04-25T07:53:43;7.10;99.90
15556;DHT22;7879;48.660;9.116;2023-04-25T07:56:10;7.00;99.90
15556;DHT22;7879;48.660;9.116;2023-04-25T07:58:37;7.00;99.90
15556;DHT22;7879;48.660;9.116;2023-04-25T08:01:04;7.00;99.90
15556;DHT22;7879;48.660;9.116;2023-04-25T08:03:30;7.00;99.90
15556;DHT22;7879;48.660;9.116;2023-04-25T08:05:57;7.00;99.90
15556;DHT22;7879;48.660;9.116;2023-04-25T08:08:25;7.00;99.90
15556;DHT22;7879;48.660;9.116;2023-04-25T08:10:51;7.20;99.90
15556;DHT22;7879;48.660;9.116;2023-04-25T08:13:18;7.10;99.90
15556;DHT22;7879;48.660;9.116;2023-04-25T08:15:45;7.10;99.90
15556;DHT22;7879;48.660;9.116;2023-04-25T08:18:12;6.90;99.90
15556;DHT22;7879;48.660;9.116;2023-04-25T08:20:42;7.00;99.90
15556;DHT22;7879;48.660;9.116;2023-04-25T08:23:09;6.90;99.90
15556;DHT22;7879;48.660;9.116;2023-04-25T08:25:37;6.90;99.90
15556;DHT22;7879;48.660;9.116;2023-04-25T08:28:05;6.90;99.90
15556;DHT22;7879;48.660;9.116;2023-04-25T08:30:31;6.90;99.90
15556;DHT22;7879;48.660;9.116;2023-04-25T08:32:58;6.90;99.90
15556;DHT22;7879;48.660;9.116;2023-04-25T08:35:25;6.90;99.90
15556;DHT22;7879;48.660;9.116;2023-04-25T08:37:52;6.90;99.90
15556;DHT22;7879;48.660;9.116;2023-04-25T08:40:19;6.90;99.90
15556;DHT22;7879;48.660;9.116;2023-04-25T08:42:53;6.90;99.90
15556;DHT22;7879;48.660;9.116;2023-04-25T08:45:21;6.90;99.90
15556;DHT22;7879;48.660;9.116;2023-04-25T08:47:51;6.90;99.90
15556;DHT22;7879;48.660;9.116;2023-04-25T08:50:18;6.90;99.90
15556;DHT22;7879;48.660;9.116;2023-04-25T08:52:50;6.90;99.90
15556;DHT22;7879;48.660;9.116;2023-04-25T08:55:21;6.80;99.90
15556;DHT22;7879;48.660;9.116;2023-04-25T08:57:49;6.80;99.90
15556;DHT22;7879;48.660;9.116;2023-04-25T09:00:17;6.70;99.90
15556;DHT22;7879;48.660;9.116;2023-04-25T09:02:45;6.70;99.90
15556;DHT22;7879;48.660;9.116;2023-04-25T09:05:14;6.80;99.90
15556;DHT22;7879;48.660;9.116;2023-04-25T09:07:41;6.70;99.90
15556;DHT22;7879;48.660;9.116;2023-04-25T09:10:08;6.70;99.90
15556;DHT22;7879;48.660;9.116;2023-04-25T09:12:35;6.70;99.90
15556;DHT22;7879;48.660;9.116;2023-04-25T09:15:03;6.70;99.90
15556;DHT22;7879;48.660;9.116;2023-04-25T09:17:31;6.80;99.90
15556;DHT22;7879;48.660;9.116;2023-04-25T09:20:12;6.80;99.90
15556;DHT22;7879;48.660;9.116;2023-04-25T09:22:39;6.80;99.90
15556;DHT22;7879;48.660;9.116;2023-04-25T09:25:11;6.70;99.90
15556;DHT22;7879;48.660;9.116;2023-04-25T09:27:54;6.80;99.90
15556;DHT22;7879;48.660;9.116;2023-04-25T09:30:30;6.80;99.90
15556;DHT22;7879;48.660;9.116;2023-04-25T09:33:03;6.80;99.90
15556;DHT22;7879;48.660;9.116;2023-04-25T09:35:35;6.80;99.90
15556;DHT22;7879;48.660;9.116;2023-04-25T09:38:11;6.80;99.90
15556;DHT22;7879;48.660;9.116;2023-04-25T09:40:43;6.80;99.90
15556;DHT22;7879;48.660;9.116;2023-04-25T09:43:22;6.80;99.90
15556;DHT22;7879;48.660;9.116;2023-04-25T09:45:50;6.80;99.90
15556;DHT22;7879;48.660;9.116;2023-04-25T09:48:19;6.80;99.90
15556;DHT22;7879;48.660;9.116;2023-04-25T09:53:36;6.80;99.90
15556;DHT22;7879;48.660;9.116;2023-04-25T09:56:04;6.70;99.90
15556;DHT22;7879;48.660;9.116;2023-04-25T09:58:32;6.70;99.90
15556;DHT22;7879;48.660;9.116;2023-04-25T10:01:01;6.70;99.90
15556;DHT22;7879;48.660;9.116;2023-04-25T10:03:33;6.70;99.90
15556;DHT22;7879;48.660;9.116;2023-04-25T10:06:08;6.70;99.90
15556;DHT22;7879;48.660;9.116;2023-04-25T10:08:36;6.70;99.90
15556;DHT22;7879;48.660;9.116;2023-04-25T10:11:05;6.50;99.90
15556;DHT22;7879;48.660;9.116;2023-04-25T10:13:34;6.40;99.90
15556;DHT22;7879;48.660;9.116;2023-04-25T10:16:04;6.30;99.90
15556;DHT22;7879;48.660;9.116;2023-04-25T10:18:32;6.30;99.90
15556;DHT22;7879;48.660;9.116;2023-04-25T10:21:04;6.30;99.90
15556;DHT22;7879;48.660;9.116;2023-04-25T10:23:32;6.20;99.90
15556;DHT22;7879;48.660;9.116;2023-04-25T10:26:03;6.30;99.90
15556;DHT22;7879;48.660;9.116;2023-04-25T10:29:00;6.30;99.90
15556;DHT22;7879;48.660;9.116;2023-04-25T10:31:30;6.30;99.90
15556;DHT22;7879;48.660;9.116;2023-04-25T10:33:59;6.40;99.90
15556;DHT22;7879;48.660;9.116;2023-04-25T10:36:31;6.50;99.90
15556;DHT22;7879;48.660;9.116;2023-04-25T10:39:03;6.50;99.90
15556;DHT22;7879;48.660;9.116;2023-04-25T10:41:46;6.50;99.90
15556;DHT22;7879;48.660;9.116;2023-04-25T10:44:14;6.50;99.90
15556;DHT22;7879;48.660;9.116;2023-04-25T10:46:44;6.50;99.90
15556;DHT22;7879;48.660;9.116;2023-04-25T10:49:31;6.50;99.90
15556;DHT22;7879;48.660;9.116;2023-04-25T10:52:25;6.50;99.90
15556;DHT22;7879;48.660;9.116;2023-04-25T10:54:55;6.40;99.90
15556;DHT22;7879;48.660;9.116;2023-04-25T10:57:38;6.50;99.90
15556;DHT22;7879;48.660;9.116;2023-04-25T11:00:08;6.50;99.90
15556;DHT22;7879;48.660;9.116;2023-04-25T11:02:41;6.60;99.90
15556;DHT22;7879;48.660;9.116;2023-04-25T11:05:09;6.60;99.90
15556;DHT22;7879;48.660;9.116;2023-04-25T11:07:55;6.60;99.90
15556;DHT22;7879;48.660;9.116;2023-04-25T11:10:28;6.60;99.90
15556;DHT22;7879;48.660;9.116;2023-04-25T11:12:55;6.70;99.90
15556;DHT22;7879;48.660;9.116;2023-04-25T11:15:23;6.70;99.90
15556;DHT22;7879;48.660;9.116;2023-04-25T11:17:53;6.80;99.90
15556;DHT22;7879;48.660;9.116;2023-04-25T11:20:21;6.80;99.90
15556;DHT22;7879;48.660;9.116;2023-04-25T11:22:49;6.90;99.90
15556;DHT22;7879;48.660;9.116;2023-04-25T11:25:19;6.90;99.90
15556;DHT22;7879;48.660;9.116;2023-04-25T11:27:56;7.00;99.90
15556;DHT22;7879;48.660;9.116;2023-04-25T11:30:28;6.90;99.90
15556;DHT22;7879;48.660;9.116;2023-04-25T11:32:57;6.90;99.90
15556;DHT22;7879;48.660;9.116;2023-04-25T11:35:25;6.90;99.90
15556;DHT22;7879;48.660;9.116;2023-04-25T11:37:52;6.90;99.90
15556;DHT22;7879;48.660;9.116;2023-04-25T11:40:19;6.90;99.90
15556;DHT22;7879;48.660;9.116;2023-04-25T11:42:46;6.90;99.90
15556;DHT22;7879;48.660;9.116;2023-04-25T11:45:16;6.80;99.90
15556;DHT22;7879;48.660;9.116;2023-04-25T11:47:46;6.70;99.90
15556;DHT22;7879;48.660;9.116;2023-04-25T11:50:13;6.70;99.90
15556;DHT22;7879;48.660;9.116;2023-04-25T11:52:44;6.70;99.90
15556;DHT22;7879;48.660;9.116;2023-04-25T11:55:16;6.70;99.90
15556;DHT22;7879;48.660;9.116;2023-04-25T11:57:46;6.80;99.90
15556;DHT22;7879;48.660;9.116;2023-04-25T12:00:20;6.80;99.90
15556;DHT22;7879;48.660;9.116;2023-04-25T12:02:53;6.70;99.90
15556;DHT22;7879;48.660;9.116;2023-04-25T12:05:27;6.80;99.90
15556;DHT22;7879;48.660;9.116;2023-04-25T12:08:13;6.80;99.90
15556;DHT22;7879;48.660;9.116;2023-04-25T12:10:43;6.90;99.90
15556;DHT22;7879;48.660;9.116;2023-04-25T12:13:25;6.90;99.90
15556;DHT22;7879;48.660;9.116;2023-04-25T12:15:57;7.00;99.90
15556;DHT22;7879;48.660;9.116;2023-04-25T12:18:26;7.10;99.90
15556;DHT22;7879;48.660;9.116;2023-04-25T12:20:55;7.10;99.90
15556;DHT22;7879;48.660;9.116;2023-04-25T12:23:28;7.10;99.90
15556;DHT22;7879;48.660;9.116;2023-04-25T12:25:55;7.20;99.90
15556;DHT22;7879;48.660;9.116;2023-04-25T12:28:24;7.20;99.90
15556;DHT22;7879;48.660;9.116;2023-04-25T12:31:03;7.20;99.90
15556;DHT22;7879;48.660;9.116;2023-04-25T12:33:33;7.20;99.90
15556;DHT22;7879;48.660;9.116;2023-04-25T12:36:01;7.30;99.90
15556;DHT22;7879;48.660;9.116;2023-04-25T12:38:37;7.40;99.90
15556;DHT22;7879;48.660;9.116;2023-04-25T12:41:04;7.40;99.90
15556;DHT22;7879;48.660;9.116;2023-04-25T12:43:32;7.50;99.90
15556;DHT22;7879;48.660;9.116;2023-04-25T12:45:59;7.60;99.90
15556;DHT22;7879;48.660;9.116;2023-04-25T12:48:26;7.60;99.90
15556;DHT22;7879;48.660;9.116;2023-04-25T12:50:53;7.60;99.90
15556;DHT22;7879;48.660;9.116;2023-04-25T12:53:21;7.60;99.90
15556;DHT22;7879;48.660;9.116;2023-04-25T12:55:48;7.80;99.90
15556;DHT22;7879;48.660;9.116;2023-04-25T12:58:16;7.60;99.90
15556;DHT22;7879;48.660;9.116;2023-04-25T13:00:47;7.70;99.90
15556;DHT22;7879;48.660;9.116;2023-04-25T13:03:14;7.70;99.90
15556;DHT22;7879;48.660;9.116;2023-04-25T13:05:42;7.70;99.90
15556;DHT22;7879;48.660;9.116;2023-04-25T13:08:09;7.80;99.90
15556;DHT22;7879;48.660;9.116;2023-04-25T13:10:36;7.80;99.90
15556;DHT22;7879;48.660;9.116;2023-04-25T13:13:07;7.80;99.90
15556;DHT22;7879;48.660;9.116;2023-04-25T13:15:35;7.80;99.90
15556;DHT22;7879;48.660;9.116;2023-04-25T13:18:07;7.90;99.90
15556;DHT22;7879;48.660;9.116;2023-04-25T13:20:34;7.90;99.90
15556;DHT22;7879;48.660;9.116;2023-04-25T13:23:03;8.00;99.90
15556;DHT22;7879;48.660;9.116;2023-04-25T13:25:31;8.00;99.90
15556;DHT22;7879;48.660;9.116;2023-04-25T13:28:01;8.00;99.90
15556;DHT22;7879;48.660;9.116;2023-04-25T13:30:29;8.00;99.90
15556;DHT22;7879;48.660;9.116;2023-04-25T13:32:56;8.00;99.90
15556;DHT22;7879;48.660;9.116;2023-04-25T13:35:23;8.00;99.90
15556;DHT22;7879;48.660;9.116;2023-04-25T13:37:51;8.00;99.90
15556;DHT22;7879;48.660;9.116;2023-04-25T13:40:17;8.20;99.90
15556;DHT22;7879;48.660;9.116;2023-04-25T13:42:45;8.30;99.90
15556;DHT22;7879;48.660;9.116;2023-04-25T13:45:12;8.40;99.90
15556;DHT22;7879;48.660;9.116;2023-04-25T13:47:41;8.30;99.90
15556;DHT22;7879;48.660;9.116;2023-04-25T13:50:09;8.30;99.90
15556;DHT22;7879;48.660;9.116;2023-04-25T13:52:36;8.30;99.90
15556;DHT22;7879;48.660;9.116;2023-04-25T13:55:03;8.40;99.90
15556;DHT22;7879;48.660;9.116;2023-04-25T13:57:33;8.50;99.90
15556;DHT22;7879;48.660;9.116;2023-04-25T14:00:03;8.50;99.90
15556;DHT22;7879;48.660;9.116;2023-04-25T14:02:35;8.50;99.90
15556;DHT22;7879;48.660;9.116;2023-04-25T14:05:03;8.50;99.90
15556;DHT22;7879;48.660;9.116;2023-04-25T14:07:31;8.50;99.90
15556;DHT22;7879;48.660;9.116;2023-04-25T14:09:57;8.50;99.90
15556;DHT22;7879;48.660;9.116;2023-04-25T14:12:24;8.50;99.90
15556;DHT22;7879;48.660;9.116;2023-04-25T14:14:52;8.60;99.90
15556;DHT22;7879;48.660;9.116;2023-04-25T14:17:21;8.60;99.90
15556;DHT22;7879;48.660;9.116;2023-04-25T14:19:49;8.70;99.90
15556;DHT22;7879;48.660;9.116;2023-04-25T14:22:16;8.90;99.90
15556;DHT22;7879;48.660;9.116;2023-04-25T14:24:43;8.90;99.90
15556;DHT22;7879;48.660;9.116;2023-04-25T14:27:10;8.80;99.90
15556;DHT22;7879;48.660;9.116;2023-04-25T14:29:43;8.90;99.90
15556;DHT22;7879;48.660;9.116;2023-04-25T14:32:09;8.90;99.90
15556;DHT22;7879;48.660;9.116;2023-04-25T14:34:37;9.00;99.90
15556;DHT22;7879;48.660;9.116;2023-04-25T14:37:04;9.00;99.90
15556;DHT22;7879;48.660;9.116;2023-04-25T14:39:31;9.00;99.90
15556;DHT22;7879;48.660;9.116;2023-04-25T14:42:00;9.00;99.90
15556;DHT22;7879;48.660;9.116;2023-04-25T14:44:27;9.10;99.90
15556;DHT22;7879;48.660;9.116;2023-04-25T14:46:54;9.10;99.90
15556;DHT22;7879;48.660;9.116;2023-04-25T14:49:22;9.00;99.90
15556;DHT22;7879;48.660;9.116;2023-04-25T14:51:49;9.10;99.90
15556;DHT22;7879;48.660;9.116;2023-04-25T14:54:17;9.10;99.90
15556;DHT22;7879;48.660;9.116;2023-04-25T14:56:44;9.20;99.90
15556;DHT22;7879;48.660;9.116;2023-04-25T14:59:11;9.20;99.90
15556;DHT22;7879;48.660;9.116;2023-04-25T15:01:38;9.10;99.90
15556;DHT22;7879;48.660;9.116;2023-04-25T15:04:04;9.10;99.90
15556;DHT22;7879;48.660;9.116;2023-04-25T15:06:32;9.10;99.90
15556;DHT22;7879;48.660;9.116;2023-04-25T15:08:59;9.20;99.90
15556;DHT22;7879;48.660;9.116;2023-04-25T15:11:26;9.20;99.90
15556;DHT22;7879;48.660;9.116;2023-04-25T15:13:53;9.20;99.90
15556;DHT22;7879;48.660;9.116;2023-04-25T15:16:20;9.20;99.90
15556;DHT22;7879;48.660;9.116;2023-04-25T15:18:47;9.20;99.90
15556;DHT22;7879;48.660;9.116;2023-04-25T15:21:14;9.30;99.90
15556;DHT22;7879;48.660;9.116;2023-04-25T15:23:41;9.40;99.90
15556;DHT22;7879;48.660;9.116;2023-04-25T15:26:08;9.40;99.90
15556;DHT22;7879;48.660;9.116;2023-04-25T15:28:35;9.50;99.90
15556;DHT22;7879;48.660;9.116;2023-04-25T15:31:02;9.50;99.90
15556;DHT22;7879;48.660;9.116;2023-04-25T15:33:29;9.50;99.90
15556;DHT22;7879;48.660;9.116;2023-04-25T15:35:56;9.30;99.90
15556;DHT22;7879;48.660;9.116;2023-04-25T15:38:24;9.40;99.90
15556;DHT22;7879;48.660;9.116;2023-04-25T15:40:52;9.40;99.90
15556;DHT22;7879;48.660;9.116;2023-04-25T15:43:19;9.40;99.90
15556;DHT22;7879;48.660;9.116;2023-04-25T15:45:46;9.40;99.90
15556;DHT22;7879;48.660;9.116;2023-04-25T15:48:13;9.40;99.90
15556;DHT22;7879;48.660;9.116;2023-04-25T15:50:40;9.40;99.90
15556;DHT22;7879;48.660;9.116;2023-04-25T15:53:07;9.40;99.90
15556;DHT22;7879;48.660;9.116;2023-04-25T15:55:34;9.40;99.90
15556;DHT22;7879;48.660;9.116;2023-04-25T15:58:02;9.40;99.90
15556;DHT22;7879;48.660;9.116;2023-04-25T16:00:28;9.40;99.90
15556;DHT22;7879;48.660;9.116;2023-04-25T16:02:56;9.40;99.90
15556;DHT22;7879;48.660;9.116;2023-04-25T16:05:23;9.40;99.90
15556;DHT22;7879;48.660;9.116;2023-04-25T16:07:50;9.40;99.90
15556;DHT22;7879;48.660;9.116;2023-04-25T16:10:19;9.40;99.90
15556;DHT22;7879;48.660;9.116;2023-04-25T16:12:48;9.40;99.90